LiveATC.Net - Listen to live air traffic control over the Internet! Contact for advertising information

ICAO: MMUN  IATA: CUN   Airport: Cancun International Airport
City: Cancun
Country: Mexico   Continent: North America
MMUN METAR Weather: MMUN 051842Z 23006KT 7SM SCT015 31/17 A2988 RMK 8/100 MDT CU
MMUN Flight Activity (FlightAware)
MMUN Twr/App/Center
Feed Status: UP   Listeners: 5
Listen right in your browser - requires Flash (in browser, requires Flash)
Click here to listen with your own player (launches your MP3 player)
MMUN Twr/App/Center Audio Archives
Cancun Approach123.400
Cancun Departure119.800
Cancun Tower (North)118.100
Cancun Tower (South)118.600
Merida Center125.200
Merida Center128.200


Unauthorized use prohibited. See Terms of Service

Find LiveATC Audio Streams

Airport/ARTCC Code

(e.g., 124.400, 128.75)
Site-wide search

Browse LiveATC Feeds
LiveATC Coverage Map
Top 50 LiveATC Feeds
Bad Weather Areas

Offer a LiveATC Feed
Press Inquiries

LiveATC on iPhone
LiveATC on Android

LiveATC Mobile
(Mobile browser)

ATC Audio Archives
Interesting Recordings

LiveATC Forums

Home Page
Make a Donation
LiveATC Bookstore

Terms of Use
Privacy Policy

ATC/Radar Sites
U.S. ARTCC Freqs
Canadian Air Freqs


FAA Airport Status
Nat'l Airspace Status
Arrival Demand Charts

Server Software By:

Please make a donation to help us keep growing!